sensor_id;sensor_type;location;lat;lon;timestamp;pressure;altitude;pressure_sealevel;temperature;humidity
30708;BME280;17458;48.958;8.284;2023-04-10T00:01:43;100937.84;;;11.14;49.92
30708;BME280;17458;48.958;8.284;2023-04-10T00:04:27;100935.16;;;11.45;49.10
30708;BME280;17458;48.958;8.284;2023-04-10T00:07:11;100937.03;;;11.62;48.59
30708;BME280;17458;48.958;8.284;2023-04-10T00:09:55;100933.09;;;11.72;48.35
30708;BME280;17458;48.958;8.284;2023-04-10T00:12:39;100939.63;;;11.77;49.29
30708;BME280;17458;48.958;8.284;2023-04-10T00:15:23;100940.00;;;11.68;50.07
30708;BME280;17458;48.958;8.284;2023-04-10T00:18:07;100943.88;;;11.43;50.57
30708;BME280;17458;48.958;8.284;2023-04-10T00:20:51;100946.13;;;11.35;51.03
30708;BME280;17458;48.958;8.284;2023-04-10T00:23:36;100945.69;;;10.96;51.99
30708;BME280;17458;48.958;8.284;2023-04-10T00:26:20;100942.81;;;10.77;52.36
30708;BME280;17458;48.958;8.284;2023-04-10T00:29:05;100946.28;;;10.61;52.87
30708;BME280;17458;48.958;8.284;2023-04-10T00:31:49;100950.31;;;10.55;52.99
30708;BME280;17458;48.958;8.284;2023-04-10T00:34:33;100946.84;;;10.56;53.19
30708;BME280;17458;48.958;8.284;2023-04-10T00:37:17;100937.84;;;10.39;53.40
30708;BME280;17458;48.958;8.284;2023-04-10T00:40:02;100940.91;;;10.03;54.55
30708;BME280;17458;48.958;8.284;2023-04-10T00:42:45;100934.50;;;9.99;54.71
30708;BME280;17458;48.958;8.284;2023-04-10T00:45:29;100931.25;;;9.75;55.50
30708;BME280;17458;48.958;8.284;2023-04-10T00:48:14;100941.19;;;9.92;54.98
30708;BME280;17458;48.958;8.284;2023-04-10T00:50:59;100939.91;;;10.01;54.69
30708;BME280;17458;48.958;8.284;2023-04-10T00:53:44;100945.94;;;9.98;54.71
30708;BME280;17458;48.958;8.284;2023-04-10T00:56:29;100929.78;;;9.66;55.92
30708;BME280;17458;48.958;8.284;2023-04-10T00:59:17;100941.78;;;9.74;55.59
30708;BME280;17458;48.958;8.284;2023-04-10T01:02:01;100931.38;;;9.77;55.14
30708;BME280;17458;48.958;8.284;2023-04-10T01:04:46;100934.31;;;9.81;54.92
30708;BME280;17458;48.958;8.284;2023-04-10T01:07:53;100938.34;;;9.89;55.18
30708;BME280;17458;48.958;8.284;2023-04-10T01:10:48;100931.81;;;9.84;54.98
30708;BME280;17458;48.958;8.284;2023-04-10T01:16:30;100928.56;;;9.60;55.25
30708;BME280;17458;48.958;8.284;2023-04-10T01:19:26;100934.84;;;9.48;55.69
30708;BME280;17458;48.958;8.284;2023-04-10T01:22:15;100935.66;;;9.47;56.37
30708;BME280;17458;48.958;8.284;2023-04-10T01:25:47;100934.13;;;9.78;55.37
30708;BME280;17458;48.958;8.284;2023-04-10T01:29:00;100933.09;;;9.76;55.38
30708;BME280;17458;48.958;8.284;2023-04-10T01:34:50;100948.06;;;9.61;55.72
30708;BME280;17458;48.958;8.284;2023-04-10T01:37:37;100943.03;;;9.66;55.45
30708;BME280;17458;48.958;8.284;2023-04-10T01:40:25;100942.53;;;9.58;55.26
30708;BME280;17458;48.958;8.284;2023-04-10T01:43:10;100937.63;;;9.36;55.76
30708;BME280;17458;48.958;8.284;2023-04-10T01:46:03;100938.03;;;9.29;56.19
30708;BME280;17458;48.958;8.284;2023-04-10T01:48:49;100937.81;;;8.98;57.80
30708;BME280;17458;48.958;8.284;2023-04-10T01:51:36;100939.44;;;9.09;57.67
30708;BME280;17458;48.958;8.284;2023-04-10T01:54:26;100952.00;;;9.27;57.20
30708;BME280;17458;48.958;8.284;2023-04-10T01:57:13;100939.09;;;9.18;57.39
30708;BME280;17458;48.958;8.284;2023-04-10T02:00:09;100929.84;;;9.11;57.29
30708;BME280;17458;48.958;8.284;2023-04-10T02:02:59;100931.72;;;9.27;56.80
30708;BME280;17458;48.958;8.284;2023-04-10T02:06:08;100917.34;;;8.96;57.60
30708;BME280;17458;48.958;8.284;2023-04-10T02:08:58;100907.22;;;9.03;57.33
30708;BME280;17458;48.958;8.284;2023-04-10T02:11:53;100906.91;;;9.12;56.98
30708;BME280;17458;48.958;8.284;2023-04-10T02:14:42;100911.84;;;8.93;57.42
30708;BME280;17458;48.958;8.284;2023-04-10T02:17:29;100915.53;;;9.22;56.65
30708;BME280;17458;48.958;8.284;2023-04-10T02:20:15;100899.31;;;9.31;56.72
30708;BME280;17458;48.958;8.284;2023-04-10T02:22:59;100909.75;;;9.43;56.24
30708;BME280;17458;48.958;8.284;2023-04-10T02:25:46;100911.19;;;9.10;57.00
30708;BME280;17458;48.958;8.284;2023-04-10T02:28:30;100909.66;;;9.00;57.40
30708;BME280;17458;48.958;8.284;2023-04-10T02:31:15;100916.59;;;9.11;56.83
30708;BME280;17458;48.958;8.284;2023-04-10T02:33:58;100917.22;;;9.07;57.02
30708;BME280;17458;48.958;8.284;2023-04-10T02:36:43;100914.56;;;9.07;56.99
30708;BME280;17458;48.958;8.284;2023-04-10T02:39:29;100909.50;;;8.97;57.30
30708;BME280;17458;48.958;8.284;2023-04-10T02:42:14;100912.94;;;9.09;57.26
30708;BME280;17458;48.958;8.284;2023-04-10T02:44:58;100908.56;;;8.97;57.49
30708;BME280;17458;48.958;8.284;2023-04-10T02:47:43;100910.09;;;8.93;57.67
30708;BME280;17458;48.958;8.284;2023-04-10T02:50:27;100906.91;;;9.12;57.41
30708;BME280;17458;48.958;8.284;2023-04-10T02:53:14;100906.22;;;9.29;56.67
30708;BME280;17458;48.958;8.284;2023-04-10T02:55:59;100902.47;;;9.39;55.88
30708;BME280;17458;48.958;8.284;2023-04-10T02:58:43;100903.94;;;9.20;56.59
30708;BME280;17458;48.958;8.284;2023-04-10T03:01:30;100896.00;;;9.07;56.68
30708;BME280;17458;48.958;8.284;2023-04-10T03:04:15;100894.66;;;9.14;56.48
30708;BME280;17458;48.958;8.284;2023-04-10T03:06:59;100889.69;;;9.05;56.53
30708;BME280;17458;48.958;8.284;2023-04-10T03:09:43;100890.66;;;8.93;56.90
30708;BME280;17458;48.958;8.284;2023-04-10T03:12:27;100887.69;;;9.29;55.65
30708;BME280;17458;48.958;8.284;2023-04-10T03:15:11;100886.44;;;9.37;55.56
30708;BME280;17458;48.958;8.284;2023-04-10T03:17:55;100885.94;;;9.57;55.14
30708;BME280;17458;48.958;8.284;2023-04-10T03:20:39;100880.63;;;9.57;55.17
30708;BME280;17458;48.958;8.284;2023-04-10T03:23:23;100882.56;;;9.60;55.03
30708;BME280;17458;48.958;8.284;2023-04-10T03:26:07;100877.53;;;9.50;55.02
30708;BME280;17458;48.958;8.284;2023-04-10T03:28:54;100868.09;;;9.40;55.85
30708;BME280;17458;48.958;8.284;2023-04-10T03:31:38;100866.31;;;9.54;55.58
30708;BME280;17458;48.958;8.284;2023-04-10T03:34:22;100868.16;;;9.42;55.80
30708;BME280;17458;48.958;8.284;2023-04-10T03:37:06;100859.66;;;9.33;56.60
30708;BME280;17458;48.958;8.284;2023-04-10T03:39:50;100862.66;;;9.24;56.79
30708;BME280;17458;48.958;8.284;2023-04-10T03:42:34;100856.47;;;9.10;57.35
30708;BME280;17458;48.958;8.284;2023-04-10T03:45:19;100855.25;;;9.05;57.88
30708;BME280;17458;48.958;8.284;2023-04-10T03:48:03;100845.66;;;8.79;56.99
30708;BME280;17458;48.958;8.284;2023-04-10T03:50:57;100843.16;;;8.96;57.02
30708;BME280;17458;48.958;8.284;2023-04-10T03:53:41;100847.72;;;9.11;55.72
30708;BME280;17458;48.958;8.284;2023-04-10T03:56:30;100846.03;;;9.13;55.82
30708;BME280;17458;48.958;8.284;2023-04-10T03:59:15;100855.50;;;9.23;55.30
30708;BME280;17458;48.958;8.284;2023-04-10T04:02:00;100848.63;;;8.99;56.21
30708;BME280;17458;48.958;8.284;2023-04-10T04:04:44;100848.84;;;9.02;56.70
30708;BME280;17458;48.958;8.284;2023-04-10T04:07:38;100852.81;;;9.08;56.43
30708;BME280;17458;48.958;8.284;2023-04-10T04:10:32;100854.81;;;9.12;56.17
30708;BME280;17458;48.958;8.284;2023-04-10T04:13:39;100849.34;;;8.68;57.57
30708;BME280;17458;48.958;8.284;2023-04-10T04:16:27;100848.66;;;8.85;57.57
30708;BME280;17458;48.958;8.284;2023-04-10T04:19:42;100842.75;;;8.89;57.21
30708;BME280;17458;48.958;8.284;2023-04-10T04:22:38;100846.75;;;8.83;56.98
30708;BME280;17458;48.958;8.284;2023-04-10T04:25:42;100836.25;;;8.84;56.65
30708;BME280;17458;48.958;8.284;2023-04-10T04:28:51;100846.56;;;8.80;56.49
30708;BME280;17458;48.958;8.284;2023-04-10T04:31:42;100847.47;;;8.80;56.68
30708;BME280;17458;48.958;8.284;2023-04-10T04:34:26;100842.44;;;8.85;56.51
30708;BME280;17458;48.958;8.284;2023-04-10T04:37:24;100842.38;;;8.83;56.26
30708;BME280;17458;48.958;8.284;2023-04-10T04:40:31;100844.34;;;8.46;57.35
30708;BME280;17458;48.958;8.284;2023-04-10T04:43:25;100849.84;;;8.63;57.07
30708;BME280;17458;48.958;8.284;2023-04-10T04:46:24;100855.94;;;8.75;57.28
30708;BME280;17458;48.958;8.284;2023-04-10T04:49:11;100861.75;;;8.82;57.01
30708;BME280;17458;48.958;8.284;2023-04-10T04:52:10;100857.09;;;8.52;57.79
30708;BME280;17458;48.958;8.284;2023-04-10T04:54:58;100856.38;;;8.41;58.72
30708;BME280;17458;48.958;8.284;2023-04-10T04:58:11;100859.13;;;8.56;57.64
30708;BME280;17458;48.958;8.284;2023-04-10T05:01:08;100862.78;;;8.45;57.85
30708;BME280;17458;48.958;8.284;2023-04-10T05:04:31;100864.72;;;8.47;57.83
30708;BME280;17458;48.958;8.284;2023-04-10T05:07:24;100875.72;;;8.67;57.48
30708;BME280;17458;48.958;8.284;2023-04-10T05:10:25;100868.56;;;8.66;57.58
30708;BME280;17458;48.958;8.284;2023-04-10T05:13:18;100872.34;;;8.69;57.28
30708;BME280;17458;48.958;8.284;2023-04-10T05:16:10;100878.13;;;8.77;57.40
30708;BME280;17458;48.958;8.284;2023-04-10T05:19:13;100872.25;;;8.55;58.24
30708;BME280;17458;48.958;8.284;2023-04-10T05:22:32;100870.53;;;8.68;58.07
30708;BME280;17458;48.958;8.284;2023-04-10T05:25:42;100863.91;;;8.48;60.23
30708;BME280;17458;48.958;8.284;2023-04-10T05:28:34;100855.75;;;8.59;60.60
30708;BME280;17458;48.958;8.284;2023-04-10T05:31:37;100856.53;;;8.71;60.57
30708;BME280;17458;48.958;8.284;2023-04-10T05:34:38;100858.06;;;8.80;59.67
30708;BME280;17458;48.958;8.284;2023-04-10T05:37:29;100856.28;;;9.07;58.88
30708;BME280;17458;48.958;8.284;2023-04-10T05:40:33;100854.84;;;8.99;58.69
30708;BME280;17458;48.958;8.284;2023-04-10T05:43:38;100860.44;;;9.04;58.53
30708;BME280;17458;48.958;8.284;2023-04-10T05:46:42;100871.09;;;9.18;58.22
30708;BME280;17458;48.958;8.284;2023-04-10T05:49:46;100876.44;;;9.61;57.20
30708;BME280;17458;48.958;8.284;2023-04-10T05:52:53;100875.28;;;9.71;57.31
30708;BME280;17458;48.958;8.284;2023-04-10T05:55:56;100869.91;;;9.84;56.91
30708;BME280;17458;48.958;8.284;2023-04-10T05:58:58;100877.72;;;9.95;55.98
30708;BME280;17458;48.958;8.284;2023-04-10T06:02:03;100879.09;;;10.18;55.04
30708;BME280;17458;48.958;8.284;2023-04-10T06:04:47;100871.53;;;9.96;54.90
30708;BME280;17458;48.958;8.284;2023-04-10T06:07:32;100871.28;;;9.92;55.27
30708;BME280;17458;48.958;8.284;2023-04-10T06:10:16;100864.78;;;10.02;54.70
30708;BME280;17458;48.958;8.284;2023-04-10T06:13:00;100869.75;;;10.25;54.43
30708;BME280;17458;48.958;8.284;2023-04-10T06:15:44;100871.94;;;10.47;53.79
30708;BME280;17458;48.958;8.284;2023-04-10T06:18:29;100872.94;;;10.63;52.86
30708;BME280;17458;48.958;8.284;2023-04-10T06:21:13;100874.00;;;10.98;52.14
30708;BME280;17458;48.958;8.284;2023-04-10T06:23:57;100870.75;;;11.18;51.54
30708;BME280;17458;48.958;8.284;2023-04-10T06:26:41;100858.69;;;11.41;51.45
30708;BME280;17458;48.958;8.284;2023-04-10T06:29:26;100865.69;;;11.55;51.44
30708;BME280;17458;48.958;8.284;2023-04-10T06:32:10;100857.03;;;11.59;50.85
30708;BME280;17458;48.958;8.284;2023-04-10T06:34:57;100862.16;;;12.05;50.05
30708;BME280;17458;48.958;8.284;2023-04-10T06:37:41;100863.13;;;12.41;49.11
30708;BME280;17458;48.958;8.284;2023-04-10T06:40:26;100863.16;;;12.59;47.08
30708;BME280;17458;48.958;8.284;2023-04-10T06:43:12;100862.63;;;12.14;46.67
30708;BME280;17458;48.958;8.284;2023-04-10T06:45:56;100857.47;;;12.17;46.98
30708;BME280;17458;48.958;8.284;2023-04-10T06:48:40;100855.34;;;12.28;47.29
30708;BME280;17458;48.958;8.284;2023-04-10T06:51:24;100855.09;;;12.94;46.15
30708;BME280;17458;48.958;8.284;2023-04-10T06:54:08;100849.78;;;12.94;45.26
30708;BME280;17458;48.958;8.284;2023-04-10T06:56:52;100853.00;;;12.69;44.77
30708;BME280;17458;48.958;8.284;2023-04-10T06:59:42;100848.91;;;12.76;45.87
30708;BME280;17458;48.958;8.284;2023-04-10T07:02:26;100844.34;;;13.10;44.65
30708;BME280;17458;48.958;8.284;2023-04-10T07:05:09;100840.69;;;13.08;44.86
30708;BME280;17458;48.958;8.284;2023-04-10T07:07:54;100843.34;;;14.05;43.51
30708;BME280;17458;48.958;8.284;2023-04-10T07:10:38;100843.25;;;14.42;42.48
30708;BME280;17458;48.958;8.284;2023-04-10T07:13:22;100842.00;;;14.35;42.22
30708;BME280;17458;48.958;8.284;2023-04-10T07:16:06;100845.44;;;14.73;41.83
30708;BME280;17458;48.958;8.284;2023-04-10T07:18:53;100839.03;;;14.48;41.93
30708;BME280;17458;48.958;8.284;2023-04-10T07:21:38;100844.03;;;14.62;41.93
30708;BME280;17458;48.958;8.284;2023-04-10T07:24:22;100835.31;;;14.66;41.82
30708;BME280;17458;48.958;8.284;2023-04-10T07:27:06;100836.59;;;15.20;40.99
30708;BME280;17458;48.958;8.284;2023-04-10T07:29:53;100841.25;;;14.38;40.93
30708;BME280;17458;48.958;8.284;2023-04-10T07:32:40;100835.63;;;14.32;40.53
30708;BME280;17458;48.958;8.284;2023-04-10T07:35:27;100836.06;;;14.84;39.74
30708;BME280;17458;48.958;8.284;2023-04-10T07:38:11;100829.44;;;15.19;40.09
30708;BME280;17458;48.958;8.284;2023-04-10T07:40:59;100840.03;;;15.62;38.63
30708;BME280;17458;48.958;8.284;2023-04-10T07:43:43;100836.97;;;15.75;39.20
30708;BME280;17458;48.958;8.284;2023-04-10T07:46:27;100835.53;;;15.61;39.40
30708;BME280;17458;48.958;8.284;2023-04-10T07:49:10;100841.75;;;15.60;38.63
30708;BME280;17458;48.958;8.284;2023-04-10T07:51:55;100837.13;;;15.80;37.33
30708;BME280;17458;48.958;8.284;2023-04-10T07:54:39;100834.06;;;15.69;37.14
30708;BME280;17458;48.958;8.284;2023-04-10T07:57:23;100837.34;;;16.10;37.08
30708;BME280;17458;48.958;8.284;2023-04-10T08:00:07;100839.03;;;16.33;36.32
30708;BME280;17458;48.958;8.284;2023-04-10T08:02:57;100839.81;;;16.81;35.99
30708;BME280;17458;48.958;8.284;2023-04-10T08:05:41;100844.13;;;17.05;35.63
30708;BME280;17458;48.958;8.284;2023-04-10T08:08:25;100835.91;;;17.28;36.24
30708;BME280;17458;48.958;8.284;2023-04-10T08:11:26;100834.06;;;16.71;35.98
30708;BME280;17458;48.958;8.284;2023-04-10T08:14:10;100843.78;;;16.94;35.91
30708;BME280;17458;48.958;8.284;2023-04-10T08:16:56;100841.88;;;16.90;36.21
30708;BME280;17458;48.958;8.284;2023-04-10T08:19:40;100833.81;;;17.47;35.48
30708;BME280;17458;48.958;8.284;2023-04-10T08:22:25;100841.75;;;16.87;34.98
30708;BME280;17458;48.958;8.284;2023-04-10T08:25:09;100837.47;;;16.65;35.29
30708;BME280;17458;48.958;8.284;2023-04-10T08:27:53;100837.13;;;16.81;35.51
30708;BME280;17458;48.958;8.284;2023-04-10T08:30:37;100835.63;;;17.48;36.67
30708;BME280;17458;48.958;8.284;2023-04-10T08:33:21;100831.47;;;17.29;33.89
30708;BME280;17458;48.958;8.284;2023-04-10T08:36:05;100830.13;;;17.15;34.04
30708;BME280;17458;48.958;8.284;2023-04-10T08:38:49;100833.59;;;17.39;33.66
30708;BME280;17458;48.958;8.284;2023-04-10T08:41:33;100834.91;;;17.55;32.19
30708;BME280;17458;48.958;8.284;2023-04-10T08:44:17;100838.25;;;17.46;33.20
30708;BME280;17458;48.958;8.284;2023-04-10T08:47:01;100831.53;;;17.60;32.08
30708;BME280;17458;48.958;8.284;2023-04-10T08:49:54;100835.50;;;18.04;33.31
30708;BME280;17458;48.958;8.284;2023-04-10T08:52:42;100830.13;;;18.39;31.56
30708;BME280;17458;48.958;8.284;2023-04-10T08:55:27;100822.28;;;18.47;30.87
30708;BME280;17458;48.958;8.284;2023-04-10T08:58:11;100825.16;;;18.89;31.59
30708;BME280;17458;48.958;8.284;2023-04-10T09:00:56;100827.81;;;18.18;33.14
30708;BME280;17458;48.958;8.284;2023-04-10T09:03:40;100814.16;;;18.45;32.20
30708;BME280;17458;48.958;8.284;2023-04-10T09:06:24;100810.94;;;18.24;32.40
30708;BME280;17458;48.958;8.284;2023-04-10T09:09:08;100812.69;;;18.22;32.48
30708;BME280;17458;48.958;8.284;2023-04-10T09:14:43;100800.31;;;18.63;31.69
30708;BME280;17458;48.958;8.284;2023-04-10T09:17:27;100793.72;;;18.52;31.20
30708;BME280;17458;48.958;8.284;2023-04-10T09:20:20;100788.56;;;19.37;31.05
30708;BME280;17458;48.958;8.284;2023-04-10T09:23:20;100784.66;;;18.84;30.42
30708;BME280;17458;48.958;8.284;2023-04-10T09:26:31;100777.25;;;19.13;31.25
30708;BME280;17458;48.958;8.284;2023-04-10T09:29:15;100774.34;;;19.44;30.98
30708;BME280;17458;48.958;8.284;2023-04-10T09:32:02;100767.25;;;19.92;30.12
30708;BME280;17458;48.958;8.284;2023-04-10T09:34:53;100760.66;;;19.76;30.29
30708;BME280;17458;48.958;8.284;2023-04-10T09:37:41;100759.06;;;19.87;30.12
30708;BME280;17458;48.958;8.284;2023-04-10T09:40:25;100763.84;;;19.57;30.04
30708;BME280;17458;48.958;8.284;2023-04-10T09:43:26;100759.16;;;19.92;30.51
30708;BME280;17458;48.958;8.284;2023-04-10T09:46:10;100753.69;;;19.43;30.63
30708;BME280;17458;48.958;8.284;2023-04-10T09:48:54;100749.91;;;19.34;30.15
30708;BME280;17458;48.958;8.284;2023-04-10T09:51:44;100746.84;;;20.06;29.83
30708;BME280;17458;48.958;8.284;2023-04-10T09:54:36;100744.34;;;20.16;29.72
30708;BME280;17458;48.958;8.284;2023-04-10T09:57:21;100746.91;;;19.62;30.82
30708;BME280;17458;48.958;8.284;2023-04-10T10:00:06;100737.72;;;19.53;30.39
30708;BME280;17458;48.958;8.284;2023-04-10T10:02:54;100725.69;;;19.79;31.17
30708;BME280;17458;48.958;8.284;2023-04-10T10:05:46;100727.25;;;19.68;30.57
30708;BME280;17458;48.958;8.284;2023-04-10T10:08:31;100728.25;;;20.24;30.10
30708;BME280;17458;48.958;8.284;2023-04-10T10:11:23;100721.44;;;20.43;30.17
30708;BME280;17458;48.958;8.284;2023-04-10T10:14:14;100715.75;;;20.83;30.62
30708;BME280;17458;48.958;8.284;2023-04-10T10:17:04;100715.72;;;19.75;30.06
30708;BME280;17458;48.958;8.284;2023-04-10T10:19:58;100715.97;;;19.89;29.95
30708;BME280;17458;48.958;8.284;2023-04-10T10:22:45;100707.63;;;20.26;29.31
30708;BME280;17458;48.958;8.284;2023-04-10T10:25:30;100707.13;;;20.50;29.06
30708;BME280;17458;48.958;8.284;2023-04-10T10:28:20;100708.47;;;20.79;28.91
30708;BME280;17458;48.958;8.284;2023-04-10T10:31:05;100703.88;;;21.37;28.53
30708;BME280;17458;48.958;8.284;2023-04-10T10:33:53;100704.63;;;21.26;28.63
30708;BME280;17458;48.958;8.284;2023-04-10T10:36:39;100693.59;;;21.10;28.68
30708;BME280;17458;48.958;8.284;2023-04-10T10:39:46;100698.25;;;21.20;29.50
30708;BME280;17458;48.958;8.284;2023-04-10T10:45:49;100681.06;;;21.14;30.20
30708;BME280;17458;48.958;8.284;2023-04-10T10:48:35;100686.88;;;20.76;29.30
30708;BME280;17458;48.958;8.284;2023-04-10T10:51:19;100684.44;;;20.98;29.59
30708;BME280;17458;48.958;8.284;2023-04-10T10:54:03;100679.06;;;20.99;29.21
30708;BME280;17458;48.958;8.284;2023-04-10T10:57:45;100679.00;;;20.96;28.99
30708;BME280;17458;48.958;8.284;2023-04-10T11:03:32;100671.25;;;22.04;28.82
30708;BME280;17458;48.958;8.284;2023-04-10T11:06:20;100673.38;;;20.79;28.44
30708;BME280;17458;48.958;8.284;2023-04-10T11:09:04;100679.63;;;21.42;29.00
30708;BME280;17458;48.958;8.284;2023-04-10T11:11:58;100674.94;;;22.12;28.34
30708;BME280;17458;48.958;8.284;2023-04-10T11:14:42;100673.75;;;21.08;28.56
30708;BME280;17458;48.958;8.284;2023-04-10T11:21:12;100657.66;;;21.16;29.52
30708;BME280;17458;48.958;8.284;2023-04-10T11:26:41;100648.22;;;21.54;28.08
30708;BME280;17458;48.958;8.284;2023-04-10T11:32:12;100638.19;;;21.41;27.81
30708;BME280;17458;48.958;8.284;2023-04-10T11:34:56;100640.69;;;21.25;28.08
30708;BME280;17458;48.958;8.284;2023-04-10T11:37:40;100641.69;;;21.33;28.86
30708;BME280;17458;48.958;8.284;2023-04-10T11:40:24;100639.00;;;22.30;27.81
30708;BME280;17458;48.958;8.284;2023-04-10T11:43:14;100637.19;;;22.30;30.03
30708;BME280;17458;48.958;8.284;2023-04-10T11:46:00;100622.75;;;22.33;30.41
30708;BME280;17458;48.958;8.284;2023-04-10T11:48:45;100624.94;;;21.70;30.56
30708;BME280;17458;48.958;8.284;2023-04-10T11:51:29;100621.53;;;21.06;30.56
30708;BME280;17458;48.958;8.284;2023-04-10T11:54:22;100620.75;;;22.03;30.69
30708;BME280;17458;48.958;8.284;2023-04-10T11:57:07;100624.63;;;22.41;28.34
30708;BME280;17458;48.958;8.284;2023-04-10T11:59:55;100615.63;;;22.42;29.72
30708;BME280;17458;48.958;8.284;2023-04-10T12:02:50;100612.75;;;22.19;28.48
30708;BME280;17458;48.958;8.284;2023-04-10T12:05:46;100603.38;;;21.75;29.12
30708;BME280;17458;48.958;8.284;2023-04-10T12:08:31;100599.72;;;21.70;30.38
30708;BME280;17458;48.958;8.284;2023-04-10T12:11:24;100601.13;;;22.30;28.43
30708;BME280;17458;48.958;8.284;2023-04-10T12:14:09;100592.13;;;22.35;29.21
30708;BME280;17458;48.958;8.284;2023-04-10T12:16:53;100589.47;;;22.44;27.90
30708;BME280;17458;48.958;8.284;2023-04-10T12:19:38;100584.72;;;22.08;28.83
30708;BME280;17458;48.958;8.284;2023-04-10T12:22:23;100578.91;;;21.58;28.78
30708;BME280;17458;48.958;8.284;2023-04-10T12:25:10;100575.84;;;21.25;28.81
30708;BME280;17458;48.958;8.284;2023-04-10T12:27:55;100572.72;;;21.73;28.47
30708;BME280;17458;48.958;8.284;2023-04-10T12:30:51;100575.13;;;22.59;27.56
30708;BME280;17458;48.958;8.284;2023-04-10T12:33:38;100565.06;;;22.35;28.79
30708;BME280;17458;48.958;8.284;2023-04-10T12:36:27;100575.31;;;21.59;27.44
30708;BME280;17458;48.958;8.284;2023-04-10T12:39:23;100571.75;;;21.66;28.25
30708;BME280;17458;48.958;8.284;2023-04-10T12:42:21;100568.63;;;22.26;27.97
30708;BME280;17458;48.958;8.284;2023-04-10T12:45:06;100575.09;;;22.60;28.83
30708;BME280;17458;48.958;8.284;2023-04-10T12:47:52;100572.44;;;22.68;27.78
30708;BME280;17458;48.958;8.284;2023-04-10T12:50:46;100551.84;;;23.10;30.86
30708;BME280;17458;48.958;8.284;2023-04-10T12:53:41;100558.16;;;23.01;27.22
30708;BME280;17458;48.958;8.284;2023-04-10T12:56:26;100554.69;;;21.72;29.79
30708;BME280;17458;48.958;8.284;2023-04-10T12:59:10;100549.28;;;21.73;28.01
30708;BME280;17458;48.958;8.284;2023-04-10T13:01:54;100540.56;;;22.11;27.89
30708;BME280;17458;48.958;8.284;2023-04-10T13:04:38;100542.69;;;22.76;27.67
30708;BME280;17458;48.958;8.284;2023-04-10T13:07:22;100540.16;;;23.35;26.75
30708;BME280;17458;48.958;8.284;2023-04-10T13:10:07;100537.41;;;23.09;26.64
30708;BME280;17458;48.958;8.284;2023-04-10T13:12:52;100534.63;;;22.82;29.12
30708;BME280;17458;48.958;8.284;2023-04-10T13:15:36;100536.31;;;22.57;27.24
30708;BME280;17458;48.958;8.284;2023-04-10T13:18:20;100523.81;;;22.86;28.27
30708;BME280;17458;48.958;8.284;2023-04-10T13:21:04;100519.31;;;23.02;27.49
30708;BME280;17458;48.958;8.284;2023-04-10T13:23:48;100517.56;;;23.12;26.99
30708;BME280;17458;48.958;8.284;2023-04-10T13:26:32;100509.41;;;23.07;28.04
30708;BME280;17458;48.958;8.284;2023-04-10T13:29:16;100514.81;;;23.09;27.25
30708;BME280;17458;48.958;8.284;2023-04-10T13:32:01;100513.91;;;23.01;29.19
30708;BME280;17458;48.958;8.284;2023-04-10T13:34:48;100498.59;;;23.50;29.81
30708;BME280;17458;48.958;8.284;2023-04-10T13:37:32;100500.41;;;23.23;27.92
30708;BME280;17458;48.958;8.284;2023-04-10T13:40:16;100494.97;;;23.36;28.78
30708;BME280;17458;48.958;8.284;2023-04-10T13:43:00;100485.09;;;23.53;26.91
30708;BME280;17458;48.958;8.284;2023-04-10T13:45:44;100483.00;;;22.47;28.07
30708;BME280;17458;48.958;8.284;2023-04-10T13:48:28;100486.88;;;23.28;28.58
30708;BME280;17458;48.958;8.284;2023-04-10T13:51:12;100479.66;;;23.51;28.47
30708;BME280;17458;48.958;8.284;2023-04-10T13:53:55;100467.00;;;23.27;28.08
30708;BME280;17458;48.958;8.284;2023-04-10T13:56:40;100471.88;;;21.86;28.32
30708;BME280;17458;48.958;8.284;2023-04-10T13:59:24;100470.53;;;22.78;28.93
30708;BME280;17458;48.958;8.284;2023-04-10T14:02:08;100460.66;;;23.01;28.32
30708;BME280;17458;48.958;8.284;2023-04-10T14:04:52;100467.00;;;23.70;28.68
30708;BME280;17458;48.958;8.284;2023-04-10T14:07:36;100465.16;;;23.11;27.67
30708;BME280;17458;48.958;8.284;2023-04-10T14:10:20;100453.47;;;23.56;28.42
30708;BME280;17458;48.958;8.284;2023-04-10T14:13:05;100448.91;;;22.97;28.51
30708;BME280;17458;48.958;8.284;2023-04-10T14:15:50;100442.59;;;23.12;28.03
30708;BME280;17458;48.958;8.284;2023-04-10T14:18:36;100435.38;;;23.51;29.64
30708;BME280;17458;48.958;8.284;2023-04-10T14:21:20;100437.09;;;23.87;29.52
30708;BME280;17458;48.958;8.284;2023-04-10T14:24:04;100439.88;;;23.67;28.77
30708;BME280;17458;48.958;8.284;2023-04-10T14:26:48;100438.97;;;23.60;28.71
30708;BME280;17458;48.958;8.284;2023-04-10T14:29:34;100430.84;;;23.66;29.24
30708;BME280;17458;48.958;8.284;2023-04-10T14:32:18;100433.53;;;23.48;29.80
30708;BME280;17458;48.958;8.284;2023-04-10T14:35:02;100431.75;;;23.12;30.31
30708;BME280;17458;48.958;8.284;2023-04-10T14:37:46;100417.31;;;23.28;27.87
30708;BME280;17458;48.958;8.284;2023-04-10T14:40:31;100419.03;;;23.87;27.56
30708;BME280;17458;48.958;8.284;2023-04-10T14:43:15;100419.09;;;23.37;30.51
30708;BME280;17458;48.958;8.284;2023-04-10T14:45:59;100410.97;;;22.88;29.30
30708;BME280;17458;48.958;8.284;2023-04-10T14:48:43;100401.06;;;23.10;30.27
30708;BME280;17458;48.958;8.284;2023-04-10T14:51:27;100401.63;;;21.95;31.04
30708;BME280;17458;48.958;8.284;2023-04-10T14:54:11;100396.44;;;22.45;31.35
30708;BME280;17458;48.958;8.284;2023-04-10T14:56:56;100391.91;;;22.41;31.78
30708;BME280;17458;48.958;8.284;2023-04-10T14:59:41;100387.41;;;22.42;32.66
30708;BME280;17458;48.958;8.284;2023-04-10T15:02:25;100383.81;;;22.52;32.74
30708;BME280;17458;48.958;8.284;2023-04-10T15:05:08;100376.59;;;22.51;32.40
30708;BME280;17458;48.958;8.284;2023-04-10T15:07:53;100381.13;;;22.66;32.19